YCIN

RAAF Curtin

Airport
ICAO code
YCIN
IATA Code
DCN
Summary
ICAO Region
APAC
ICAO Territory
Location

Derby, Western Australia

Serving
Derby
Elevation
1000 ft
Coordinates
17° 34' 53" S , 123° 49' 42" E
KCC
Metar
Observation
YCIN 021230Z AUTO 33004KT 9999 // NCD 27/24 Q1005 RF00.0/000.0
Station
CURTIN/DERBY
Date/Time
2022-12-02 12:30:00
Wind direction
330°
Wind speed
04 kts
Lowest cloud amount
no clouds detected
Temperature
27°C
Dew point
24°C
Humidity
83%
QNH
1005 hPa
Weather condition
n/a

RAAF Base Curtin, also sometimes RAAF Curtin is a joint use RAAF military air base and civilian airport located 19 nm (35 km; 22 mi) southeast of the town of Derby on the north coast of Western Australia. No RAAF units are permanently based at Curtin and it is maintained by a small caretaker staff during peacetime.

Airport map

Aerial View

SKYbrary Partners:

Safety knowledge contributed by: